createdAt,value
2022-09-20T00:01:22.446Z,100816.78
2022-09-20T00:03:52.176Z,100832.69
2022-09-20T00:06:22.515Z,100830.91
2022-09-20T00:08:50.532Z,100823.66
2022-09-20T00:11:20.705Z,100844.94
2022-09-20T00:13:50.889Z,100837.97
2022-09-20T00:16:22.941Z,100844.16
2022-09-20T00:18:51.298Z,100844.19
2022-09-20T00:21:21.225Z,100821.22
2022-09-20T00:23:49.171Z,100808.69
2022-09-20T00:26:17.731Z,100845.97
2022-09-20T00:28:47.168Z,100843.38
2022-09-20T00:31:16.093Z,100839.88
2022-09-20T00:34:02.855Z,100848.69
2022-09-20T00:36:31.250Z,100844.19
2022-09-20T00:39:01.540Z,100850.41
2022-09-20T00:41:30.204Z,100840.81
2022-09-20T00:43:58.553Z,100832.63
2022-09-20T00:46:34.435Z,100840.81
2022-09-20T00:49:09.613Z,100823.94
2022-09-20T00:51:40.331Z,100824.78
2022-09-20T00:54:11.388Z,100821.13
2022-09-20T00:56:44.187Z,100852.09
2022-09-20T00:59:17.009Z,100858.00
2022-09-20T01:01:47.225Z,100865.16
2022-09-20T01:04:17.867Z,100860.75
2022-09-20T01:06:47.975Z,100848.28
2022-09-20T01:09:16.421Z,100868.59
2022-09-20T01:11:44.569Z,100870.28
2022-09-20T01:14:15.096Z,100872.00
2022-09-20T01:16:43.320Z,100856.97
2022-09-20T01:19:21.281Z,100873.78
2022-09-20T01:21:49.841Z,100831.22
2022-09-20T01:24:24.438Z,100869.47
2022-09-20T01:27:06.656Z,100877.34
2022-09-20T01:29:48.001Z,100874.75
2022-09-20T01:32:22.182Z,100871.09
2022-09-20T01:34:55.842Z,100884.44
2022-09-20T01:37:27.859Z,100882.66
2022-09-20T01:40:05.148Z,100865.88
2022-09-20T01:42:37.329Z,100881.81
2022-09-20T01:45:16.107Z,100873.06
2022-09-20T01:47:53.159Z,100864.97
2022-09-20T01:50:32.187Z,100874.63
2022-09-20T01:53:33.121Z,100883.50
2022-09-20T01:56:37.775Z,100897.50
2022-09-20T01:59:28.646Z,100893.16
2022-09-20T02:02:10.355Z,100899.25
2022-09-20T02:05:17.448Z,100891.19
2022-09-20T02:08:10.113Z,100905.31
2022-09-20T02:11:12.461Z,100907.06
2022-09-20T02:14:06.383Z,100877.75
2022-09-20T02:16:51.653Z,100900.03
2022-09-20T02:19:34.851Z,100892.75
2022-09-20T02:22:16.159Z,100895.34
2022-09-20T02:24:52.005Z,100904.34
2022-09-20T02:27:27.493Z,100913.06
2022-09-20T02:30:11.517Z,100906.78
2022-09-20T02:33:02.703Z,100924.28
2022-09-20T02:35:48.384Z,100930.28
2022-09-20T02:38:31.841Z,100927.50
2022-09-20T02:41:24.299Z,100937.81
2022-09-20T02:44:00.577Z,100930.56
2022-09-20T02:46:35.744Z,100936.75
2022-09-20T02:49:09.765Z,100935.75
2022-09-20T02:51:41.908Z,100843.88
2022-09-20T02:54:19.596Z,100948.81
2022-09-20T02:56:56.268Z,100948.72
2022-09-20T02:59:33.285Z,100950.44
2022-09-20T03:02:10.336Z,100955.59
2022-09-20T03:04:56.738Z,100958.22
2022-09-20T03:07:35.211Z,100959.94
2022-09-20T03:10:16.000Z,100944.03
2022-09-20T03:12:56.336Z,100957.41
2022-09-20T03:15:33.170Z,100962.69
2022-09-20T03:18:09.499Z,100963.53
2022-09-20T03:20:49.305Z,100946.53
2022-09-20T03:23:37.011Z,100970.47
2022-09-20T03:26:15.246Z,100978.31
2022-09-20T03:29:00.595Z,100972.25
2022-09-20T03:31:40.205Z,100942.75
2022-09-20T03:34:21.833Z,100973.03
2022-09-20T03:37:06.378Z,100988.09
2022-09-20T03:40:16.899Z,100991.63
2022-09-20T03:42:48.854Z,100988.91
2022-09-20T03:45:42.511Z,100986.28
2022-09-20T03:48:39.609Z,100981.81
2022-09-20T03:51:16.850Z,100985.16
2022-09-20T03:54:17.301Z,101001.09
2022-09-20T03:57:30.541Z,101005.34
2022-09-20T04:00:24.068Z,101015.88
2022-09-20T04:03:30.056Z,101007.78
2022-09-20T04:06:19.349Z,101027.41
2022-09-20T04:09:06.106Z,101025.53
2022-09-20T04:11:44.576Z,100924.88
2022-09-20T04:14:20.822Z,101037.88
2022-09-20T04:16:56.881Z,101031.75
2022-09-20T04:19:32.912Z,101034.44
2022-09-20T04:22:03.293Z,101044.03
2022-09-20T04:24:39.266Z,101003.84
2022-09-20T04:27:14.162Z,101048.38
2022-09-20T04:29:50.872Z,101038.38
2022-09-20T04:32:26.416Z,101056.19
2022-09-20T04:35:21.457Z,101032.13
2022-09-20T04:37:51.065Z,101063.16
2022-09-20T04:40:36.266Z,101059.63
2022-09-20T04:43:40.472Z,101071.06
2022-09-20T04:46:35.773Z,101069.38
2022-09-20T04:49:29.963Z,101078.09
2022-09-20T04:52:47.829Z,101081.66
2022-09-20T04:55:47.048Z,101083.16
2022-09-20T04:58:38.470Z,101085.16
2022-09-20T05:01:44.907Z,101084.06
2022-09-20T05:04:57.356Z,101088.47
2022-09-20T05:08:00.919Z,101107.06
2022-09-20T05:11:06.950Z,101092.06
2022-09-20T05:13:43.729Z,101102.56
2022-09-20T05:16:23.310Z,101112.34
2022-09-20T05:19:17.554Z,101123.81
2022-09-20T05:21:54.000Z,101128.22
2022-09-20T05:24:38.478Z,101112.25
2022-09-20T05:27:22.483Z,101137.91
2022-09-20T05:29:57.023Z,101091.66
2022-09-20T05:32:35.012Z,101142.41
2022-09-20T05:35:12.636Z,101145.09
2022-09-20T05:37:47.902Z,101134.44
2022-09-20T05:40:24.729Z,101143.50
2022-09-20T05:42:59.143Z,101129.25
2022-09-20T05:45:54.232Z,101157.66
2022-09-20T05:48:32.192Z,101156.84
2022-09-20T05:51:05.755Z,101167.38
2022-09-20T05:53:58.845Z,101144.41
2022-09-20T05:56:40.591Z,101173.63
2022-09-20T05:59:22.545Z,101177.13
2022-09-20T06:02:01.983Z,101176.28
2022-09-20T06:04:43.055Z,101158.50
2022-09-20T06:07:26.813Z,101189.56
2022-09-20T06:10:15.546Z,101183.53
2022-09-20T06:12:56.620Z,101186.19
2022-09-20T06:15:30.467Z,101188.78
2022-09-20T06:18:05.439Z,101190.59
2022-09-20T06:20:44.221Z,101199.41
2022-09-20T06:23:13.075Z,101199.41
2022-09-20T06:25:46.580Z,101198.63
2022-09-20T06:28:18.920Z,101211.06
2022-09-20T06:30:49.864Z,101190.03
2022-09-20T06:33:20.750Z,101217.50
2022-09-20T06:35:58.711Z,101208.94
2022-09-20T06:39:04.476Z,101217.19
2022-09-20T06:41:35.913Z,101209.53
2022-09-20T06:44:06.626Z,101188.38
2022-09-20T06:46:36.535Z,101220.41
2022-09-20T06:49:08.358Z,101239.31
2022-09-20T06:51:39.422Z,101218.28
2022-09-20T06:54:11.503Z,101239.09
2022-09-20T06:56:39.576Z,101241.09
2022-09-20T06:59:08.604Z,101250.81
2022-09-20T07:01:36.903Z,101250.81
2022-09-20T07:04:06.196Z,101225.78
2022-09-20T07:06:34.541Z,101168.97
2022-09-20T07:09:04.241Z,101259.41
2022-09-20T07:11:34.273Z,101245.22
2022-09-20T07:14:02.935Z,101258.31
2022-09-20T07:16:30.860Z,101267.59
2022-09-20T07:19:00.593Z,101268.22
2022-09-20T07:21:28.496Z,101266.59
2022-09-20T07:23:57.862Z,101274.53
2022-09-20T07:26:29.270Z,101270.16
2022-09-20T07:28:57.863Z,101279.66
2022-09-20T07:31:27.805Z,101283.97
2022-09-20T07:33:56.359Z,101195.44
2022-09-20T07:36:24.304Z,101289.44
2022-09-20T07:38:53.847Z,101280.78
2022-09-20T07:41:23.044Z,101246.81
2022-09-20T07:43:52.367Z,101274.16
2022-09-20T07:46:22.335Z,101279.44
2022-09-20T07:48:50.545Z,101284.47
2022-09-20T07:51:18.397Z,101295.53
2022-09-20T07:53:46.346Z,101279.25
2022-09-20T07:56:16.728Z,101295.06
2022-09-20T07:58:48.599Z,101297.53
2022-09-20T08:01:22.915Z,101287.41
2022-09-20T08:03:51.196Z,101305.69
2022-09-20T08:06:21.301Z,101224.59
2022-09-20T08:08:51.898Z,101285.25
2022-09-20T08:11:27.745Z,101231.72
2022-09-20T08:14:12.842Z,101310.16
2022-09-20T08:16:43.977Z,101306.84
2022-09-20T08:19:17.184Z,101302.72
2022-09-20T08:21:45.149Z,101221.81
2022-09-20T08:24:13.598Z,101315.44
2022-09-20T08:26:42.139Z,101312.09
2022-09-20T08:29:09.959Z,101313.38
2022-09-20T08:31:42.397Z,101305.91
2022-09-20T08:34:15.118Z,101294.28
2022-09-20T08:36:46.910Z,101307.19
2022-09-20T08:42:16.171Z,101315.94
2022-09-20T08:45:00.502Z,101302.09
2022-09-20T08:47:32.237Z,101314.06
2022-09-20T08:50:17.218Z,101295.75
2022-09-20T08:52:48.684Z,101326.78
2022-09-20T08:55:18.720Z,101321.41
2022-09-20T08:57:50.272Z,101328.84
2022-09-20T09:00:20.452Z,101328.81
2022-09-20T09:02:51.073Z,101334.00
2022-09-20T09:05:33.566Z,101334.88
2022-09-20T09:08:05.468Z,101338.47
2022-09-20T09:10:42.613Z,101328.00
2022-09-20T09:13:19.794Z,101338.66
2022-09-20T09:15:54.072Z,101208.84
2022-09-20T09:18:21.904Z,101316.38
2022-09-20T09:20:51.804Z,101322.13
2022-09-20T09:23:26.971Z,101348.03
2022-09-20T09:25:55.938Z,101316.16
2022-09-20T09:28:25.927Z,101331.19
2022-09-20T09:30:54.432Z,101352.19
2022-09-20T09:33:28.123Z,101365.28
2022-09-20T09:36:00.486Z,101323.47
2022-09-20T09:38:30.605Z,101345.31
2022-09-20T09:41:00.806Z,101369.69
2022-09-20T09:43:30.294Z,101372.78
2022-09-20T09:46:18.537Z,101305.66
2022-09-20T09:48:50.287Z,101325.72
2022-09-20T09:51:23.529Z,101388.50
2022-09-20T09:53:52.921Z,101388.16
2022-09-20T09:56:41.405Z,101356.03
2022-09-20T09:59:32.161Z,101388.69
2022-09-20T10:02:15.014Z,101378.03
2022-09-20T10:04:48.227Z,101385.97
2022-09-20T10:07:25.144Z,101376.03
2022-09-20T10:10:09.353Z,101383.53
2022-09-20T10:12:52.016Z,101333.97
2022-09-20T10:15:34.494Z,101388.91
2022-09-20T10:18:28.239Z,101391.28
2022-09-20T10:21:20.384Z,101391.19
2022-09-20T10:24:04.354Z,101391.47
2022-09-20T10:27:28.364Z,101391.66
2022-09-20T10:30:04.102Z,101387.31
2022-09-20T10:32:47.637Z,101346.56
2022-09-20T10:35:24.555Z,101395.28
2022-09-20T10:38:19.897Z,101413.06
2022-09-20T10:41:21.968Z,101423.53
2022-09-20T10:44:11.134Z,101433.72
2022-09-20T10:46:53.672Z,101359.38
2022-09-20T10:49:28.299Z,101298.84
2022-09-20T10:52:08.614Z,101434.09
2022-09-20T10:54:49.193Z,101443.44
2022-09-20T10:57:51.410Z,101447.50
2022-09-20T11:00:23.994Z,101419.66
2022-09-20T11:03:16.105Z,101434.03
2022-09-20T11:05:54.915Z,101450.69
2022-09-20T11:08:27.926Z,101357.47
2022-09-20T11:10:59.101Z,101450.63
2022-09-20T11:13:35.131Z,101449.31
2022-09-20T11:16:10.519Z,101425.50
2022-09-20T11:18:43.261Z,101448.81
2022-09-20T11:21:18.949Z,101439.41
2022-09-20T11:23:55.245Z,101452.91
2022-09-20T11:26:29.953Z,101451.13
2022-09-20T11:29:05.957Z,101449.03
2022-09-20T11:31:40.871Z,101471.72
2022-09-20T11:34:15.550Z,101456.13
2022-09-20T11:36:52.394Z,101482.16
2022-09-20T11:39:25.028Z,101463.66
2022-09-20T11:41:56.936Z,101414.06
2022-09-20T11:44:26.613Z,101486.63
2022-09-20T11:47:00.004Z,101472.88
2022-09-20T11:49:33.501Z,101497.53
2022-09-20T11:52:35.244Z,101453.69
2022-09-20T11:55:42.625Z,101491.84
2022-09-20T11:58:16.033Z,101505.81
2022-09-20T12:00:48.553Z,101509.50
2022-09-20T12:03:29.866Z,101521.34
2022-09-20T12:06:00.695Z,101522.56
2022-09-20T12:08:31.816Z,101531.84
2022-09-20T12:11:04.243Z,101525.31
2022-09-20T12:13:36.520Z,101528.72
2022-09-20T12:16:09.005Z,101543.03
2022-09-20T12:18:49.140Z,101541.53
2022-09-20T12:21:20.392Z,101539.16
2022-09-20T12:24:19.779Z,101538.41
2022-09-20T12:26:52.885Z,101496.50
2022-09-20T12:30:05.641Z,101545.53
2022-09-20T12:32:46.113Z,101550.25
2022-09-20T12:35:57.156Z,101550.44
2022-09-20T12:38:31.501Z,101559.41
2022-09-20T12:41:01.758Z,101549.78
2022-09-20T12:43:31.306Z,101530.00
2022-09-20T12:46:04.490Z,101525.19
2022-09-20T12:48:39.024Z,101564.03
2022-09-20T12:51:38.036Z,101518.22
2022-09-20T12:54:08.783Z,101568.84
2022-09-20T12:56:39.231Z,101557.84
2022-09-20T12:59:21.237Z,101542.44
2022-09-20T13:01:49.233Z,101584.91
2022-09-20T13:04:56.592Z,101584.50
2022-09-20T13:07:44.147Z,101574.16
2022-09-20T13:10:25.401Z,101588.91
2022-09-20T13:12:57.504Z,101571.69
2022-09-20T13:15:25.745Z,101559.06
2022-09-20T13:17:56.188Z,101560.00
2022-09-20T13:20:29.994Z,101582.25
2022-09-20T13:23:01.444Z,101592.44
2022-09-20T13:25:29.658Z,101599.00
2022-09-20T13:28:07.043Z,101596.59
2022-09-20T13:30:35.347Z,101604.56
2022-09-20T13:33:23.614Z,101601.19
2022-09-20T13:35:54.600Z,101602.47
2022-09-20T13:38:27.999Z,101581.41
2022-09-20T13:41:04.819Z,101609.47
2022-09-20T13:43:37.348Z,101603.22
2022-09-20T13:46:10.019Z,101612.00
2022-09-20T13:48:38.116Z,101622.44
2022-09-20T13:51:17.684Z,101622.75
2022-09-20T13:53:47.929Z,101620.53
2022-09-20T13:56:21.982Z,101614.63
2022-09-20T13:58:50.832Z,101619.66
2022-09-20T14:01:25.618Z,101618.75
2022-09-20T14:03:54.534Z,101621.00
2022-09-20T14:06:28.304Z,101596.56
2022-09-20T14:09:00.097Z,101631.25
2022-09-20T14:11:31.273Z,101635.22
2022-09-20T14:14:01.717Z,101635.22
2022-09-20T14:16:32.790Z,101649.22
2022-09-20T14:19:01.909Z,101645.31
2022-09-20T14:21:34.889Z,101617.47
2022-09-20T14:24:07.719Z,101658.16
2022-09-20T14:26:37.411Z,101663.41
2022-09-20T14:29:30.962Z,101547.53
2022-09-20T14:32:01.782Z,101661.22
2022-09-20T14:34:29.875Z,101682.03
2022-09-20T14:37:06.533Z,101678.28
2022-09-20T14:39:44.962Z,101645.25
2022-09-20T14:42:20.931Z,101649.47
2022-09-20T14:44:53.047Z,101668.47
2022-09-20T14:47:27.723Z,101679.09
2022-09-20T14:49:56.124Z,101685.03
2022-09-20T14:52:38.710Z,101694.53
2022-09-20T14:55:21.530Z,101568.59
2022-09-20T14:57:50.552Z,101700.50
2022-09-20T15:00:19.568Z,101679.25
2022-09-20T15:02:48.386Z,101704.97
2022-09-20T15:05:24.105Z,101709.09
2022-09-20T15:07:51.975Z,101712.16
2022-09-20T15:10:21.376Z,101709.19
2022-09-20T15:12:49.596Z,101714.19
2022-09-20T15:15:19.361Z,101656.81
2022-09-20T15:17:48.647Z,101715.09
2022-09-20T15:20:24.042Z,101716.63
2022-09-20T15:22:52.598Z,101724.72
2022-09-20T15:25:22.676Z,101719.75
2022-09-20T15:27:50.954Z,101727.16
2022-09-20T15:30:21.120Z,101714.06
2022-09-20T15:32:49.612Z,101718.28
2022-09-20T15:35:17.617Z,101702.81
2022-09-20T15:37:45.805Z,101707.81
2022-09-20T15:40:13.910Z,101736.91
2022-09-20T15:42:43.363Z,101734.34
2022-09-20T15:45:13.457Z,101732.97
2022-09-20T15:47:41.860Z,101739.47
2022-09-20T15:50:10.989Z,101745.91
2022-09-20T15:52:41.617Z,101738.03
2022-09-20T15:55:11.097Z,101742.56
2022-09-20T15:57:39.596Z,101752.22
2022-09-20T16:00:10.065Z,101726.03
2022-09-20T16:02:38.291Z,101753.22
2022-09-20T16:05:06.662Z,101733.50
2022-09-20T16:07:34.809Z,101748.94
2022-09-20T16:10:02.898Z,101755.44
2022-09-20T16:12:30.815Z,101758.59
2022-09-20T16:14:58.784Z,101767.75
2022-09-20T16:17:41.980Z,101763.69
2022-09-20T16:20:10.750Z,101773.63
2022-09-20T16:22:38.544Z,101773.91
2022-09-20T16:25:08.498Z,101775.16
2022-09-20T16:27:36.409Z,101771.09
2022-09-20T16:30:04.556Z,101774.03
2022-09-20T16:32:34.272Z,101776.28
2022-09-20T16:35:07.149Z,101789.09
2022-09-20T16:37:36.931Z,101735.09
2022-09-20T16:40:05.444Z,101781.22
2022-09-20T16:42:33.484Z,101787.94
2022-09-20T16:45:01.458Z,101789.41
2022-09-20T16:47:29.701Z,101795.19
2022-09-20T16:49:58.872Z,101780.56
2022-09-20T16:52:27.602Z,101795.41
2022-09-20T16:54:56.099Z,101800.41
2022-09-20T16:57:23.911Z,101781.34
2022-09-20T16:59:54.259Z,101791.13
2022-09-20T17:02:22.363Z,101768.13
2022-09-20T17:04:50.275Z,101797.69
2022-09-20T17:07:19.669Z,101795.63
2022-09-20T17:09:47.576Z,101627.53
2022-09-20T17:12:19.123Z,101806.47
2022-09-20T17:14:47.000Z,101807.94
2022-09-20T17:17:14.997Z,101802.34
2022-09-20T17:19:42.841Z,101789.16
2022-09-20T17:22:11.650Z,101813.97
2022-09-20T17:24:40.935Z,101810.84
2022-09-20T17:27:09.446Z,101815.13
2022-09-20T17:29:37.585Z,101817.53
2022-09-20T17:32:05.674Z,101816.13
2022-09-20T17:34:33.993Z,101823.16
2022-09-20T17:37:03.569Z,101780.69
2022-09-20T17:39:31.497Z,101829.75
2022-09-20T17:42:01.449Z,101832.06
2022-09-20T17:44:29.617Z,101829.28
2022-09-20T17:46:57.703Z,101842.97
2022-09-20T17:49:26.968Z,101834.09
2022-09-20T17:51:56.717Z,101832.22
2022-09-20T17:54:25.300Z,101796.16
2022-09-20T17:56:56.199Z,101808.34
2022-09-20T17:59:25.967Z,101826.16
2022-09-20T18:01:54.857Z,101827.72
2022-09-20T18:04:24.644Z,101843.56
2022-09-20T18:06:54.522Z,101836.59
2022-09-20T18:09:24.231Z,101842.22
2022-09-20T18:11:54.352Z,101827.38
2022-09-20T18:14:24.298Z,101844.22
2022-09-20T18:16:55.949Z,101845.78
2022-09-20T18:19:24.431Z,101839.00
2022-09-20T18:21:52.850Z,101830.53
2022-09-20T18:24:20.709Z,101857.00
2022-09-20T18:26:48.672Z,101836.94
2022-09-20T18:29:18.370Z,101865.19
2022-09-20T18:31:48.861Z,101863.16
2022-09-20T18:34:20.033Z,101869.84
2022-09-20T18:36:52.565Z,101868.78
2022-09-20T18:39:21.876Z,101784.09
2022-09-20T18:41:50.437Z,101872.78
2022-09-20T18:44:22.719Z,101856.25
2022-09-20T18:46:53.559Z,101894.88
2022-09-20T18:49:23.863Z,101881.47
2022-09-20T18:51:51.669Z,101874.38
2022-09-20T18:54:19.870Z,101883.84
2022-09-20T18:56:49.885Z,101870.19
2022-09-20T18:59:20.556Z,101885.38
2022-09-20T19:02:18.218Z,101881.88
2022-09-20T19:05:08.574Z,101887.84
2022-09-20T19:07:48.952Z,101890.19
2022-09-20T19:10:26.217Z,101898.75
2022-09-20T19:13:02.598Z,101903.00
2022-09-20T19:15:49.960Z,101898.50
2022-09-20T19:18:32.597Z,101852.38
2022-09-20T19:21:17.013Z,101905.09
2022-09-20T19:24:02.938Z,101907.63
2022-09-20T19:26:38.151Z,101922.31
2022-09-20T19:29:26.295Z,101916.09
2022-09-20T19:31:57.153Z,101798.41
2022-09-20T19:34:28.190Z,101868.31
2022-09-20T19:37:08.433Z,101879.91
2022-09-20T19:39:50.638Z,101927.13
2022-09-20T19:42:29.930Z,101920.03
2022-09-20T19:45:04.991Z,101900.16
2022-09-20T19:47:46.445Z,101921.56
2022-09-20T19:50:18.561Z,101905.22
2022-09-20T19:52:50.056Z,101924.00
2022-09-20T19:55:29.837Z,101925.53
2022-09-20T19:57:59.204Z,101922.84
2022-09-20T20:00:29.289Z,101924.47
2022-09-20T20:02:58.144Z,101839.69
2022-09-20T20:05:28.563Z,101942.56
2022-09-20T20:08:12.305Z,101903.16
2022-09-20T20:10:51.980Z,101923.16
2022-09-20T20:13:50.818Z,101933.22
2022-09-20T20:16:26.002Z,101933.03
2022-09-20T20:19:08.437Z,101935.66
2022-09-20T20:21:46.648Z,101933.75
2022-09-20T20:24:26.966Z,101932.69
2022-09-20T20:26:54.755Z,101915.41
2022-09-20T20:29:22.904Z,101936.81
2022-09-20T20:31:50.862Z,101936.72
2022-09-20T20:34:20.544Z,101945.19
2022-09-20T20:36:49.827Z,101936.28
2022-09-20T20:39:19.069Z,101946.81
2022-09-20T20:41:52.504Z,101932.31
2022-09-20T20:44:21.004Z,101933.03
2022-09-20T20:46:49.049Z,101948.06
2022-09-20T20:49:17.725Z,101934.22
2022-09-20T20:51:45.869Z,101952.19
2022-09-20T20:54:13.649Z,101957.31
2022-09-20T20:56:43.062Z,101883.47
2022-09-20T20:59:11.051Z,101958.75
2022-09-20T21:01:42.912Z,101969.81
2022-09-20T21:04:11.436Z,101972.25
2022-09-20T21:06:41.649Z,101964.75
2022-09-20T21:09:10.897Z,101973.56
2022-09-20T21:11:40.439Z,101965.75
2022-09-20T21:14:10.529Z,101978.69
2022-09-20T21:16:42.545Z,101957.09
2022-09-20T21:19:14.788Z,101977.63
2022-09-20T21:21:44.092Z,101986.94
2022-09-20T21:24:13.765Z,101974.06
2022-09-20T21:26:42.131Z,101983.16
2022-09-20T21:29:13.295Z,101995.22
2022-09-20T21:31:43.063Z,101995.91
2022-09-20T21:34:12.735Z,101991.41
2022-09-20T21:36:42.696Z,101992.94
2022-09-20T21:39:10.874Z,101997.94
2022-09-20T21:41:39.692Z,102004.69
2022-09-20T21:44:09.957Z,102001.00
2022-09-20T21:46:41.072Z,102004.19
2022-09-20T21:49:11.020Z,101995.50
2022-09-20T21:51:40.344Z,102007.53
2022-09-20T21:54:08.368Z,102006.44
2022-09-20T21:56:37.947Z,102008.03
2022-09-20T21:59:07.823Z,102008.84
2022-09-20T22:01:37.224Z,102018.25
2022-09-20T22:04:08.441Z,102014.66
2022-09-20T22:06:37.977Z,101900.97
2022-09-20T22:09:08.508Z,101919.06
2022-09-20T22:11:39.247Z,101993.56
2022-09-20T22:14:07.824Z,101970.03
2022-09-20T22:16:38.105Z,102014.97
2022-09-20T22:19:08.347Z,102006.69
2022-09-20T22:21:38.251Z,102017.28
2022-09-20T22:24:07.816Z,102018.50
2022-09-20T22:26:37.654Z,102027.31
2022-09-20T22:29:06.480Z,102020.81
2022-09-20T22:31:37.924Z,102024.50
2022-09-20T22:34:08.592Z,102034.84
2022-09-20T22:36:38.110Z,102036.34
2022-09-20T22:39:07.555Z,102015.41
2022-09-20T22:41:36.174Z,101975.13
2022-09-20T22:44:04.147Z,102032.63
2022-09-20T22:46:32.422Z,102012.91
2022-09-20T22:49:00.547Z,102041.25
2022-09-20T22:51:33.246Z,102014.81
2022-09-20T22:54:01.602Z,102016.50
2022-09-20T22:56:31.212Z,102037.03
2022-09-20T22:59:00.719Z,102048.06
2022-09-20T23:01:30.622Z,101958.31
2022-09-20T23:04:01.277Z,102024.59
2022-09-20T23:06:32.951Z,102042.56
2022-09-20T23:09:02.396Z,102037.53
2022-09-20T23:11:30.793Z,101998.34
2022-09-20T23:14:05.383Z,101999.94
2022-09-20T23:16:39.269Z,101694.66
2022-09-20T23:19:10.051Z,102036.19
2022-09-20T23:21:41.543Z,101803.84
2022-09-20T23:24:16.970Z,102040.50
2022-09-20T23:26:47.011Z,101920.88
2022-09-20T23:29:16.530Z,101644.28
2022-09-20T23:31:47.458Z,102074.50
2022-09-20T23:34:17.710Z,102037.09
2022-09-20T23:36:49.070Z,102035.44
2022-09-20T23:39:17.858Z,101668.56
2022-09-20T23:41:51.553Z,102040.41
2022-09-20T23:44:24.111Z,101583.84
2022-09-20T23:46:52.631Z,102041.22
2022-09-20T23:49:23.948Z,102055.03
2022-09-20T23:51:53.797Z,102048.00
2022-09-20T23:54:21.691Z,101875.66
2022-09-20T23:56:50.012Z,101707.94
2022-09-20T23:59:21.105Z,101821.03
